^^
Jimboomba-Weather Station Historical Data
 
Daily Summary for March 29, 2023 Units:  Metric    English   Both
Daily Weekly Monthly Yearly
  Current: High: Low: Average:
Temperature: 21.8 °C 23.4 °C 21.6 °C 22.6 °C
Dew Point: 19.5 °C 20.2 °C 19.1 °C 19.6 °C
Humidity: 87% 87% 81% 83%
Wind Speed: 0km/h 0km/h 0km/h 0km/h
Wind Gust: 0km/h 0km/h - -
WindCalm - - North
Pressure: 1011.2 hPa 1013.4 hPa 1010.2 hPa -
Precipitation: 0.0 mm      
 
 
Tabular Data for March 29, 2023
Time Temperature Dew Point Pressure Wind Wind Speed Wind Gust Humidity Rainfall Rate (Hourly) solar
00:15 23.4 °C 20 °C 1013.4 hPa Calm     81% 0.0 mm W/m2
00:30 23.4 °C 20.2 °C 1013.0 hPa Calm     82% 0.0 mm W/m2
00:45 23.3 °C 20.1 °C 1012.6 hPa Calm     82% 0.0 mm W/m2
01:00 23.2 °C 20 °C 1012.3 hPa Calm     82% 0.0 mm W/m2
01:15 23.2 °C 20.1 °C 1012.1 hPa Calm     83% 0.0 mm W/m2
01:30 23.1 °C 20.2 °C 1012.0 hPa Calm     84% 0.0 mm W/m2
01:45 23 °C 20.2 °C 1011.9 hPa Calm     84% 0.0 mm W/m2
02:00 22.9 °C 20.1 °C 1011.6 hPa Calm     84% 0.0 mm W/m2
02:15 22.9 °C 20.1 °C 1011.5 hPa Calm     84% 0.0 mm W/m2
02:30 22.7 °C 19.8 °C 1011.1 hPa Calm     84% 0.0 mm W/m2
02:45 22.5 °C 19.5 °C 1010.7 hPa Calm     83% 0.0 mm W/m2
03:00 22.4 °C 19.4 °C 1010.6 hPa Calm     83% 0.0 mm W/m2
03:15 22.5 °C 19.3 °C 1010.6 hPa Calm     82% 0.0 mm W/m2
03:30 22.6 °C 19.4 °C 1010.4 hPa Calm     82% 0.0 mm W/m2
03:45 22.6 °C 19.4 °C 1010.4 hPa Calm     82% 0.0 mm W/m2
04:00 22.7 °C 19.5 °C 1010.3 hPa Calm     82% 0.0 mm W/m2
04:15 22.7 °C 19.5 °C 1010.2 hPa Calm     82% 0.0 mm W/m2
04:30 22.6 °C 19.4 °C 1010.3 hPa Calm     82% 0.0 mm W/m2
04:45 22.3 °C 19.3 °C 1010.4 hPa Calm     83% 0.0 mm W/m2
05:00 22.1 °C 19.3 °C 1010.5 hPa Calm     84% 0.0 mm W/m2
05:15 21.9 °C 19.1 °C 1010.5 hPa Calm     84% 0.0 mm W/m2
05:30 21.8 °C 19.2 °C 1010.4 hPa Calm     85% 0.0 mm W/m2
05:45 21.7 °C 19.1 °C 1010.6 hPa Calm     85% 0.0 mm W/m2
06:00 21.6 °C 19.2 °C 1010.6 hPa Calm     86% 0.0 mm W/m2
06:15 21.7 °C 19.2 °C 1010.8 hPa Calm     86% 0.0 mm W/m2
06:30 21.8 °C 19.5 °C 1011.2 hPa Calm     87% 0.0 mm W/m2
Compliments of Weather Underground - 2 mb